Time,TemperatureF,DewpointF,PressureIn,WindDirection,WindDirectionDegrees,WindSpeedMPH,WindSpeedGustMPH,Humidity,HourlyPrecipIn,Conditions,Clouds,dailyrainin,SolarRadiationWatts/m^2,SoftwareType,DateUTC
2013-02-24 00:01:00,22.0,19.0,-100.00,WSW,250,1.0,4.0,87,0.00,,,0.08,0.000000,,2013-02-24 06:01:00,
2013-02-24 00:11:00,22.0,19.0,-100.00,WSW,250,1.0,4.0,87,0.00,,,0.08,0.000000,,2013-02-24 06:11:00,
2013-02-24 00:32:00,22.0,18.0,-100.00,SW,235,0.0,2.0,84,0.00,,,0.08,0.000000,,2013-02-24 06:32:00,
2013-02-24 00:42:00,22.0,18.0,-100.00,SW,235,0.0,2.0,84,0.00,,,0.08,0.000000,,2013-02-24 06:42:00,
2013-02-24 00:52:00,22.0,18.0,-100.00,SW,235,0.0,2.0,84,0.00,,,0.08,0.000000,,2013-02-24 06:52:00,
2013-02-24 01:01:00,22.0,18.0,-100.00,SW,235,0.0,2.0,84,0.00,,,0.08,0.000000,,2013-02-24 07:01:00,
2013-02-24 01:12:00,22.0,18.0,-100.00,SW,235,0.0,2.0,84,0.00,,,0.08,0.000000,,2013-02-24 07:12:00,
2013-02-24 01:32:00,23.0,18.0,-100.00,WSW,245,3.0,5.0,82,0.00,,,0.08,0.000000,,2013-02-24 07:32:00,
2013-02-24 01:42:00,23.0,18.0,-100.00,WSW,245,3.0,5.0,82,0.00,,,0.08,0.000000,,2013-02-24 07:42:00,
2013-02-24 01:52:00,23.0,18.0,-100.00,WSW,245,3.0,5.0,82,0.00,,,0.08,0.000000,,2013-02-24 07:52:00,
2013-02-24 02:01:00,23.0,18.0,-100.00,WSW,245,3.0,5.0,82,0.00,,,0.08,0.000000,,2013-02-24 08:01:00,
2013-02-24 02:11:00,23.0,18.0,-100.00,WSW,245,3.0,5.0,82,0.00,,,0.08,0.000000,,2013-02-24 08:11:00,
2013-02-24 02:42:00,22.0,18.0,-100.00,West,281,0.0,6.0,83,0.00,,,0.08,0.000000,,2013-02-24 08:42:00,
2013-02-24 02:54:00,22.0,18.0,-100.00,West,281,0.0,6.0,83,0.00,,,0.08,0.000000,,2013-02-24 08:54:00,
2013-02-24 03:01:00,22.0,18.0,-100.00,West,281,0.0,6.0,83,0.00,,,0.08,0.000000,,2013-02-24 09:01:00,
2013-02-24 03:11:00,22.0,18.0,-100.00,West,281,0.0,6.0,83,0.00,,,0.08,0.000000,,2013-02-24 09:11:00,
2013-02-24 03:42:00,21.0,18.0,-100.00,WNW,293,1.0,5.0,87,0.00,,,0.08,0.000000,,2013-02-24 09:42:00,
2013-02-24 03:52:00,21.0,18.0,-100.00,WNW,293,1.0,5.0,87,0.00,,,0.08,0.000000,,2013-02-24 09:52:00,
2013-02-24 04:01:00,21.0,18.0,-100.00,WNW,293,1.0,5.0,87,0.00,,,0.08,0.000000,,2013-02-24 10:01:00,
2013-02-24 04:11:00,21.0,18.0,-100.00,WNW,293,1.0,5.0,87,0.00,,,0.08,0.000000,,2013-02-24 10:11:00,
2013-02-24 04:42:00,13.0,10.0,-100.00,SSW,212,0.0,3.0,88,0.00,,,0.08,0.000000,,2013-02-24 10:42:00,
2013-02-24 04:52:00,13.0,10.0,-100.00,SSW,212,0.0,3.0,88,0.00,,,0.08,0.000000,,2013-02-24 10:52:00,
2013-02-24 05:01:00,13.0,10.0,-100.00,SSW,212,0.0,3.0,88,0.00,,,0.08,0.000000,,2013-02-24 11:01:00,
2013-02-24 05:11:00,13.0,10.0,-100.00,SSW,212,0.0,3.0,88,0.00,,,0.08,0.000000,,2013-02-24 11:11:00,
2013-02-24 05:32:00,9.0,5.0,-100.00,SSE,157,0.0,0.0,85,0.00,,,0.08,0.000000,,2013-02-24 11:32:00,
2013-02-24 05:42:00,9.0,5.0,-100.00,SSE,157,0.0,0.0,85,0.00,,,0.08,0.000000,,2013-02-24 11:42:00,
2013-02-24 05:53:00,9.0,5.0,-100.00,SSE,157,0.0,0.0,85,0.00,,,0.08,0.000000,,2013-02-24 11:53:00,
2013-02-24 06:01:00,9.0,5.0,-100.00,SSE,157,0.0,0.0,85,0.00,,,0.08,0.000000,,2013-02-24 12:01:00,
2013-02-24 06:11:00,9.0,5.0,-100.00,SSE,157,0.0,0.0,85,0.00,,,0.08,0.000000,,2013-02-24 12:11:00,
2013-02-24 06:33:00,6.0,2.0,-100.00,WSW,239,0.0,0.0,85,0.00,,,0.08,0.000000,,2013-02-24 12:33:00,
2013-02-24 07:45:00,4.0,0.0,-100.00,North,349,0.0,2.0,82,-99.99,,,0.08,3.000000,,2013-02-24 13:45:00,
2013-02-24 07:55:00,4.0,0.0,-100.00,North,349,0.0,2.0,82,-99.99,,,0.08,3.000000,,2013-02-24 13:55:00,
2013-02-24 08:45:00,17.0,12.0,-100.00,North,6,0.0,0.0,81,-99.99,,,0.08,91.000000,,2013-02-24 14:45:00,
2013-02-24 08:54:00,17.0,12.0,-100.00,North,6,0.0,0.0,81,-99.99,,,0.08,91.000000,,2013-02-24 14:54:00,
2013-02-24 09:03:00,17.0,12.0,-100.00,North,6,0.0,0.0,81,-99.99,,,0.08,91.000000,,2013-02-24 15:03:00,
2013-02-24 09:13:00,17.0,12.0,-100.00,North,6,0.0,0.0,81,-99.99,,,0.08,91.000000,,2013-02-24 15:13:00,
2013-02-24 09:32:00,25.0,17.0,-100.00,SW,221,1.0,4.0,72,0.00,,,0.08,268.000000,,2013-02-24 15:32:00,
2013-02-24 10:01:00,25.0,17.0,-100.00,SW,221,1.0,4.0,72,0.00,,,0.08,268.000000,,2013-02-24 16:01:00,
2013-02-24 10:11:00,25.0,17.0,-100.00,SW,221,1.0,4.0,72,0.00,,,0.08,268.000000,,2013-02-24 16:11:00,
2013-02-24 10:42:00,32.0,20.0,-100.00,SW,218,2.0,5.0,60,0.00,,,0.06,411.000000,,2013-02-24 16:42:00,
2013-02-24 10:52:00,32.0,20.0,-100.00,SW,218,2.0,5.0,60,0.00,,,0.06,411.000000,,2013-02-24 16:52:00,
2013-02-24 11:01:00,32.0,20.0,-100.00,SW,218,2.0,5.0,60,0.00,,,0.06,411.000000,,2013-02-24 17:01:00,
2013-02-24 11:11:00,32.0,20.0,-100.00,SW,218,2.0,5.0,60,0.00,,,0.06,411.000000,,2013-02-24 17:11:00,
2013-02-24 11:32:00,36.0,21.0,-100.00,SW,230,4.0,7.0,54,0.01,,,0.06,488.000000,,2013-02-24 17:32:00,
2013-02-24 11:42:00,36.0,21.0,-100.00,SW,230,4.0,7.0,54,0.01,,,0.06,488.000000,,2013-02-24 17:42:00,
2013-02-24 11:53:00,36.0,21.0,-100.00,SW,230,4.0,7.0,54,0.01,,,0.06,488.000000,,2013-02-24 17:53:00,
2013-02-24 12:01:00,36.0,21.0,-100.00,SW,230,4.0,7.0,54,0.01,,,0.06,488.000000,,2013-02-24 18:01:00,
2013-02-24 12:11:00,36.0,21.0,-100.00,SW,230,4.0,7.0,54,0.01,,,0.06,488.000000,,2013-02-24 18:11:00,
2013-02-24 12:42:00,34.0,20.0,-100.00,WSW,247,5.0,10.0,56,0.00,,,0.04,459.000000,,2013-02-24 18:42:00,
2013-02-24 12:52:00,34.0,20.0,-100.00,WSW,247,5.0,10.0,56,0.00,,,0.04,459.000000,,2013-02-24 18:52:00,
2013-02-24 13:01:00,34.0,20.0,-100.00,WSW,247,5.0,10.0,56,0.00,,,0.04,459.000000,,2013-02-24 19:01:00,
2013-02-24 13:11:00,34.0,20.0,-100.00,WSW,247,5.0,10.0,56,0.00,,,0.04,459.000000,,2013-02-24 19:11:00,
2013-02-24 13:42:00,35.0,20.0,-100.00,WSW,241,6.0,10.0,54,0.00,,,0.03,389.000000,,2013-02-24 19:42:00,
2013-02-24 13:52:00,35.0,20.0,-100.00,WSW,241,6.0,10.0,54,0.00,,,0.03,389.000000,,2013-02-24 19:52:00,
2013-02-24 14:02:00,35.0,20.0,-100.00,WSW,241,6.0,10.0,54,0.00,,,0.03,389.000000,,2013-02-24 20:02:00,
2013-02-24 14:11:00,35.0,20.0,-100.00,WSW,241,6.0,10.0,54,0.00,,,0.03,389.000000,,2013-02-24 20:11:00,
2013-02-24 14:42:00,36.0,20.0,-100.00,SW,236,5.0,10.0,51,0.00,,,0.02,397.000000,,2013-02-24 20:42:00,
2013-02-24 14:52:00,36.0,20.0,-100.00,SW,236,5.0,10.0,51,0.00,,,0.02,397.000000,,2013-02-24 20:52:00,
2013-02-24 15:02:00,36.0,20.0,-100.00,SW,236,5.0,10.0,51,0.00,,,0.02,397.000000,,2013-02-24 21:02:00,
2013-02-24 15:11:00,36.0,20.0,-100.00,SW,236,5.0,10.0,51,0.00,,,0.02,397.000000,,2013-02-24 21:11:00,
2013-02-24 15:42:00,36.0,20.0,-100.00,WSW,253,3.0,10.0,51,0.00,,,0.01,368.000000,,2013-02-24 21:42:00,
2013-02-24 15:52:00,36.0,20.0,-100.00,WSW,253,3.0,10.0,51,0.00,,,0.01,368.000000,,2013-02-24 21:52:00,
2013-02-24 16:01:00,36.0,20.0,-100.00,WSW,253,3.0,10.0,51,0.00,,,0.01,368.000000,,2013-02-24 22:01:00,
2013-02-24 16:11:00,36.0,20.0,-100.00,WSW,253,3.0,10.0,51,0.00,,,0.01,368.000000,,2013-02-24 22:11:00,
2013-02-24 16:42:00,35.0,20.0,-100.00,West,266,4.0,9.0,54,0.00,,,0.01,203.000000,,2013-02-24 22:42:00,
2013-02-24 16:52:00,35.0,20.0,-100.00,West,266,4.0,9.0,54,0.00,,,0.01,203.000000,,2013-02-24 22:52:00,
2013-02-24 17:02:00,35.0,20.0,-100.00,West,266,4.0,9.0,54,0.00,,,0.01,203.000000,,2013-02-24 23:02:00,
2013-02-24 17:11:00,35.0,20.0,-100.00,West,266,4.0,9.0,54,0.00,,,0.01,203.000000,,2013-02-24 23:11:00,
2013-02-24 17:32:00,33.0,19.0,-100.00,WSW,248,3.0,6.0,56,0.00,,,0.01,106.000000,,2013-02-24 23:32:00,
2013-02-24 17:42:00,33.0,19.0,-100.00,WSW,248,3.0,6.0,56,0.00,,,0.01,106.000000,,2013-02-24 23:42:00,
2013-02-24 17:52:00,33.0,19.0,-100.00,WSW,248,3.0,6.0,56,0.00,,,0.01,106.000000,,2013-02-24 23:52:00,
2013-02-24 18:01:00,33.0,19.0,-100.00,WSW,248,3.0,6.0,56,0.00,,,0.01,106.000000,,2013-02-25 00:01:00,
2013-02-24 18:11:00,33.0,19.0,-100.00,WSW,248,3.0,6.0,56,0.00,,,0.01,106.000000,,2013-02-25 00:11:00,
2013-02-24 18:42:00,27.0,19.0,-100.00,SSW,210,0.0,4.0,70,0.00,,,0.01,18.000000,,2013-02-25 00:42:00,
2013-02-24 18:52:00,27.0,19.0,-100.00,SSW,210,0.0,4.0,70,0.00,,,0.01,18.000000,,2013-02-25 00:52:00,
2013-02-24 19:01:00,27.0,19.0,-100.00,SSW,210,0.0,4.0,70,0.00,,,0.01,18.000000,,2013-02-25 01:01:00,
2013-02-24 19:11:00,27.0,19.0,-100.00,SSW,210,0.0,4.0,70,0.00,,,0.01,18.000000,,2013-02-25 01:11:00,
2013-02-24 19:42:00,21.0,16.0,-100.00,NW,314,0.0,0.0,81,0.00,,,0.01,0.000000,,2013-02-25 01:42:00,
2013-02-24 19:52:00,21.0,16.0,-100.00,NW,314,0.0,0.0,81,0.00,,,0.01,0.000000,,2013-02-25 01:52:00,
2013-02-24 20:01:00,21.0,16.0,-100.00,NW,314,0.0,0.0,81,0.00,,,0.01,0.000000,,2013-02-25 02:01:00,
2013-02-24 20:11:00,21.0,16.0,-100.00,NW,314,0.0,0.0,81,0.00,,,0.01,0.000000,,2013-02-25 02:11:00,
2013-02-24 20:42:00,17.0,14.0,-100.00,NNW,348,0.0,0.0,88,0.00,,,0.01,0.000000,,2013-02-25 02:42:00,
2013-02-24 20:52:00,17.0,14.0,-100.00,NNW,348,0.0,0.0,88,0.00,,,0.01,0.000000,,2013-02-25 02:52:00,
2013-02-24 21:01:00,17.0,14.0,-100.00,NNW,348,0.0,0.0,88,0.00,,,0.01,0.000000,,2013-02-25 03:01:00,
2013-02-24 21:11:00,17.0,14.0,-100.00,NNW,348,0.0,0.0,88,0.00,,,0.01,0.000000,,2013-02-25 03:11:00,
2013-02-24 21:32:00,14.0,11.0,-100.00,NNE,14,0.0,1.0,89,0.00,,,0.01,0.000000,,2013-02-25 03:32:00,
2013-02-24 21:42:00,14.0,11.0,-100.00,NNE,14,0.0,1.0,89,0.00,,,0.01,0.000000,,2013-02-25 03:42:00,
2013-02-24 21:52:00,14.0,11.0,-100.00,NNE,14,0.0,1.0,89,0.00,,,0.01,0.000000,,2013-02-25 03:52:00,
2013-02-24 22:01:00,14.0,11.0,-100.00,NNE,14,0.0,1.0,89,0.00,,,0.01,0.000000,,2013-02-25 04:01:00,
2013-02-24 22:11:00,14.0,11.0,-100.00,NNE,14,0.0,1.0,89,0.00,,,0.01,0.000000,,2013-02-25 04:11:00,
2013-02-24 22:42:00,11.0,8.0,-100.00,North,352,0.0,1.0,87,0.00,,,0.01,0.000000,,2013-02-25 04:42:00,
2013-02-24 22:52:00,11.0,8.0,-100.00,North,352,0.0,1.0,87,0.00,,,0.01,0.000000,,2013-02-25 04:52:00,
2013-02-24 23:01:00,11.0,8.0,-100.00,North,352,0.0,1.0,87,0.00,,,0.01,0.000000,,2013-02-25 05:01:00,
2013-02-24 23:11:00,11.0,8.0,-100.00,North,352,0.0,1.0,87,0.00,,,0.01,0.000000,,2013-02-25 05:11:00,
2013-02-24 23:42:00,10.0,7.0,-100.00,North,352,0.0,1.0,88,0.00,,,0.01,0.000000,,2013-02-25 05:42:00,
2013-02-24 23:52:00,10.0,7.0,-100.00,North,352,0.0,1.0,88,0.00,,,0.01,0.000000,,2013-02-25 05:52:00,